Time;durP1;ratioP1;P1;durP2;ratioP2;P2;SDS_P1;SDS_P2;PMS_P1;PMS_P2;Temp;Humidity;BMP_temperature;BMP_pressure;BME280_temperature;BME280_humidity;BME280_pressure;Samples;Min_cycle;Max_cycle;Signal;HPM_P1;HPM_P2
2020/12/23 00:02:13;;;;;;;8.77;4.87;;;10.70;95.50;;;;;;4825131;29;20099;-76
2020/12/23 00:04:39;;;;;;;7.27;3.87;;;10.70;95.50;;;;;;4815613;29;20045;-75
2020/12/23 00:07:06;;;;;;;9.63;5.03;;;10.70;95.50;;;;;;4808038;29;20045;-79
2020/12/23 00:09:33;;;;;;;8.20;4.60;;;10.70;95.50;;;;;;4841294;29;20106;-76
2020/12/23 00:12:02;;;;;;;8.33;4.20;;;10.70;95.50;;;;;;4841726;29;20494;-76
2020/12/23 00:14:29;;;;;;;8.47;4.63;;;10.70;95.50;;;;;;4841969;29;20053;-78
2020/12/23 00:16:55;;;;;;;9.73;5.00;;;10.70;95.50;;;;;;4809837;29;20110;-74
2020/12/23 00:19:22;;;;;;;8.93;4.57;;;10.70;95.50;;;;;;4838883;29;20460;-73
2020/12/23 00:21:48;;;;;;;8.37;4.30;;;10.70;95.50;;;;;;4809267;29;20038;-73
2020/12/23 00:24:15;;;;;;;8.17;4.13;;;10.70;95.50;;;;;;4840342;29;20050;-73
2020/12/23 00:26:44;;;;;;;8.90;5.00;;;10.70;95.50;;;;;;4822692;29;20042;-73
2020/12/23 00:29:10;;;;;;;8.03;4.40;;;10.70;95.50;;;;;;4839900;29;20054;-73
2020/12/23 00:31:37;;;;;;;9.37;4.70;;;10.70;95.50;;;;;;4836790;29;20070;-73
2020/12/23 00:34:03;;;;;;;10.33;4.77;;;10.70;95.50;;;;;;4838649;29;20090;-73
2020/12/23 00:36:30;;;;;;;8.17;4.30;;;10.70;95.50;;;;;;4824045;29;20046;-73
2020/12/23 00:38:56;;;;;;;8.73;4.53;;;10.70;95.50;;;;;;4827345;29;20042;-73
2020/12/23 00:41:22;;;;;;;9.50;4.73;;;10.70;95.50;;;;;;4839764;29;20141;-73
2020/12/23 00:43:49;;;;;;;10.33;5.10;;;10.70;95.50;;;;;;4821691;29;20065;-73
2020/12/23 00:46:15;;;;;;;11.70;5.03;;;10.80;95.50;;;;;;4822751;29;20042;-73
2020/12/23 00:48:43;;;;;;;8.60;5.50;;;10.80;95.50;;;;;;4838648;29;20521;-73
2020/12/23 00:51:14;;;;;;;8.83;4.73;;;10.80;95.50;;;;;;4840344;29;20102;-73
2020/12/23 00:53:42;;;;;;;9.13;4.68;;;10.80;95.50;;;;;;4813209;29;20499;-73
2020/12/23 00:56:12;;;;;;;10.63;5.47;;;10.80;95.50;;;;;;4840369;29;20042;-73
2020/12/23 00:58:39;;;;;;;12.03;5.67;;;10.80;95.50;;;;;;4808569;29;20137;-73
2020/12/23 01:01:05;;;;;;;9.97;5.73;;;10.70;95.50;;;;;;4837038;29;20069;-73
2020/12/23 01:03:44;;;;;;;9.10;4.57;;;10.80;95.50;;;;;;4839085;29;20050;-73
2020/12/23 01:06:12;;;;;;;8.97;5.03;;;10.70;95.50;;;;;;4838624;29;20054;-73
2020/12/23 01:08:40;;;;;;;11.50;5.70;;;10.70;95.50;;;;;;4823174;29;20042;-73
2020/12/23 01:11:08;;;;;;;9.10;4.83;;;10.70;95.50;;;;;;4839312;29;20056;-73
2020/12/23 01:13:35;;;;;;;11.23;5.47;;;10.80;95.50;;;;;;4823483;29;20054;-73
2020/12/23 01:16:03;;;;;;;11.17;5.43;;;10.80;95.50;;;;;;4824681;29;20050;-73
2020/12/23 01:18:29;;;;;;;10.83;5.33;;;10.80;95.50;;;;;;4826420;29;20136;-73
2020/12/23 01:20:56;;;;;;;11.93;5.23;;;10.80;95.50;;;;;;4826437;29;20046;-73
2020/12/23 01:23:22;;;;;;;8.93;4.63;;;10.80;95.50;;;;;;4843409;29;20046;-72
2020/12/23 01:25:53;;;;;;;13.80;6.27;;;10.80;95.50;;;;;;4826976;29;20053;-73
2020/12/23 01:28:20;;;;;;;12.90;6.20;;;10.80;95.50;;;;;;4843356;29;20050;-73
2020/12/23 01:30:46;;;;;;;10.10;5.30;;;10.80;95.50;;;;;;4814113;29;20129;-72
2020/12/23 01:33:13;;;;;;;13.70;6.10;;;10.80;95.50;;;;;;4837329;29;20124;-73
2020/12/23 01:35:40;;;;;;;14.10;6.67;;;10.80;95.50;;;;;;4826513;29;20460;-73
2020/12/23 01:38:06;;;;;;;12.77;5.73;;;10.80;95.50;;;;;;4826970;29;20052;-73
2020/12/23 01:40:32;;;;;;;13.53;6.57;;;10.80;95.50;;;;;;4819622;29;20492;-73
2020/12/23 01:42:59;;;;;;;14.07;6.70;;;10.80;95.50;;;;;;4830523;29;20889;-73
2020/12/23 01:45:26;;;;;;;13.50;6.33;;;10.80;95.50;;;;;;4832564;29;20445;-73
2020/12/23 01:47:56;;;;;;;14.73;6.20;;;10.80;95.50;;;;;;4837564;29;20121;-73
2020/12/23 01:50:23;;;;;;;13.73;6.03;;;10.80;95.50;;;;;;4842644;29;20106;-73
2020/12/23 01:52:53;;;;;;;13.47;5.60;;;10.80;95.50;;;;;;4841383;29;20460;-73
2020/12/23 01:55:20;;;;;;;10.53;5.67;;;10.80;95.50;;;;;;4833580;29;20050;-73
2020/12/23 01:57:46;;;;;;;11.97;5.20;;;10.80;95.60;;;;;;4837448;29;20075;-73
2020/12/23 02:00:13;;;;;;;11.57;4.83;;;10.80;95.50;;;;;;4826350;29;20065;-73
2020/12/23 02:02:43;;;;;;;14.73;5.43;;;10.80;95.50;;;;;;4822414;29;20053;-73
2020/12/23 02:05:10;;;;;;;13.03;6.13;;;10.80;95.50;;;;;;4826587;29;20133;-73
2020/12/23 02:07:37;;;;;;;10.53;5.43;;;10.80;95.50;;;;;;4811340;29;20192;-73
2020/12/23 02:10:07;;;;;;;13.93;5.73;;;10.80;95.60;;;;;;4842598;29;20045;-73
2020/12/23 02:12:34;;;;;;;12.43;5.13;;;10.80;95.50;;;;;;4842470;29;20086;-73
2020/12/23 02:15:11;;;;;;;11.83;5.57;;;10.80;95.50;;;;;;4841056;29;20166;-73
2020/12/23 02:17:39;;;;;;;12.67;6.60;;;10.80;95.50;;;;;;4810995;29;20052;-73
2020/12/23 02:20:07;;;;;;;13.87;5.97;;;10.80;95.50;;;;;;4841066;29;20091;-73
2020/12/23 02:22:35;;;;;;;13.07;5.90;;;10.80;95.50;;;;;;4841325;29;20755;-73
2020/12/23 02:25:02;;;;;;;12.13;6.03;;;10.80;95.50;;;;;;4842901;29;20057;-73
2020/12/23 02:27:29;;;;;;;11.37;6.03;;;10.80;95.50;;;;;;4834633;29;20493;-73
2020/12/23 02:29:57;;;;;;;11.50;5.30;;;10.80;95.50;;;;;;4843231;29;20066;-73
2020/12/23 02:32:25;;;;;;;12.73;5.80;;;10.80;95.50;;;;;;4820575;29;20462;-73
2020/12/23 02:34:52;;;;;;;13.83;6.50;;;10.80;95.40;;;;;;4842201;29;20133;-73
2020/12/23 02:37:20;;;;;;;14.00;5.33;;;10.80;95.60;;;;;;4822854;29;20724;-73
2020/12/23 02:39:51;;;;;;;13.37;6.03;;;10.80;95.50;;;;;;4822213;29;20046;-73
2020/12/23 02:42:19;;;;;;;11.88;6.10;;;10.80;95.60;;;;;;4825559;29;20045;-73
2020/12/23 02:44:49;;;;;;;12.13;5.50;;;10.80;95.60;;;;;;4841140;29;20455;-73
2020/12/23 02:47:17;;;;;;;13.83;6.90;;;10.80;95.60;;;;;;4810680;29;20054;-73
2020/12/23 02:49:44;;;;;;;13.10;6.47;;;10.80;95.60;;;;;;4824963;29;20049;-73
2020/12/23 02:52:11;;;;;;;13.77;6.50;;;10.70;95.50;;;;;;4842083;29;20657;-73
2020/12/23 02:54:39;;;;;;;11.93;4.83;;;10.80;95.60;;;;;;4825631;29;20050;-73
2020/12/23 02:57:06;;;;;;;13.27;5.77;;;10.80;95.60;;;;;;4840772;29;20107;-73
2020/12/23 02:59:33;;;;;;;12.90;5.93;;;10.80;95.60;;;;;;4825749;29;20050;-73
2020/12/23 03:02:00;;;;;;;14.37;4.97;;;10.80;95.60;;;;;;4823832;29;20138;-73
2020/12/23 03:04:27;;;;;;;15.63;5.97;;;10.70;95.50;;;;;;4840859;29;20126;-73
2020/12/23 03:06:53;;;;;;;15.97;6.30;;;10.80;95.60;;;;;;4794923;29;20102;-73
2020/12/23 03:09:20;;;;;;;11.40;5.43;;;10.80;95.60;;;;;;4821513;29;20102;-73
2020/12/23 03:11:47;;;;;;;13.23;4.83;;;10.80;95.60;;;;;;4795496;29;20443;-73
2020/12/23 03:14:14;;;;;;;11.30;5.77;;;10.80;95.60;;;;;;4825614;29;20065;-73
2020/12/23 03:16:40;;;;;;;17.90;5.97;;;10.80;95.60;;;;;;4816769;29;20038;-73
2020/12/23 03:19:07;;;;;;;14.77;6.47;;;10.80;95.60;;;;;;4809702;29;20050;-73
2020/12/23 03:21:33;;;;;;;11.70;4.77;;;10.80;95.50;;;;;;4810420;29;20410;-73
2020/12/23 03:24:00;;;;;;;16.40;6.83;;;10.80;95.50;;;;;;4825262;29;20034;-73
2020/12/23 03:26:26;;;;;;;11.90;6.47;;;10.80;95.50;;;;;;4841687;29;20546;-73
2020/12/23 03:28:53;;;;;;;14.80;6.50;;;10.80;95.60;;;;;;4802950;29;20054;-73
2020/12/23 03:31:19;;;;;;;13.50;6.23;;;10.80;95.60;;;;;;4843260;29;20037;-73
2020/12/23 03:33:46;;;;;;;10.67;5.00;;;10.80;95.60;;;;;;4858744;29;20681;-73
2020/12/23 03:36:12;;;;;;;14.80;6.07;;;10.80;95.60;;;;;;4828479;29;20052;-73
2020/12/23 03:38:39;;;;;;;15.83;6.40;;;10.80;95.60;;;;;;4859377;29;20045;-78
2020/12/23 03:41:06;;;;;;;9.30;4.30;;;10.90;95.60;;;;;;4844261;29;20388;-78
2020/12/23 03:43:32;;;;;;;11.97;5.27;;;10.90;95.60;;;;;;4859663;29;20053;-77
2020/12/23 03:45:59;;;;;;;13.67;5.07;;;10.90;95.60;;;;;;4843046;29;20116;-77
2020/12/23 03:48:26;;;;;;;12.67;5.40;;;10.90;95.60;;;;;;4844290;29;20049;-78
2020/12/23 03:50:52;;;;;;;17.87;5.90;;;10.90;95.60;;;;;;4847153;29;20511;-77
2020/12/23 03:53:19;;;;;;;14.80;6.57;;;10.80;95.60;;;;;;4859621;29;20558;-77
2020/12/23 03:55:45;;;;;;;13.77;5.30;;;10.90;95.60;;;;;;4860761;29;20102;-77
2020/12/23 03:58:11;;;;;;;14.67;5.93;;;10.90;95.60;;;;;;4859363;29;20076;-77
2020/12/23 04:00:39;;;;;;;16.60;5.87;;;10.90;95.60;;;;;;4861075;29;20053;-77
2020/12/23 04:03:05;;;;;;;15.00;5.03;;;10.80;95.60;;;;;;4860776;29;20071;-78
2020/12/23 04:05:38;;;;;;;14.75;6.32;;;10.90;95.60;;;;;;4860876;29;20398;-77
2020/12/23 04:08:05;;;;;;;17.97;6.17;;;10.90;95.60;;;;;;4860501;29;20371;-77
2020/12/23 04:10:33;;;;;;;14.77;5.77;;;10.90;95.60;;;;;;4829292;29;20132;-77
2020/12/23 04:13:00;;;;;;;14.27;5.57;;;10.90;95.60;;;;;;4860622;29;20050;-77
2020/12/23 04:15:26;;;;;;;13.17;5.70;;;10.90;95.60;;;;;;4856277;29;20053;-77
2020/12/23 04:17:54;;;;;;;13.43;5.40;;;10.90;95.60;;;;;;4860798;29;20053;-77
2020/12/23 04:20:21;;;;;;;12.57;4.83;;;10.90;95.60;;;;;;4847632;29;20549;-77
2020/12/23 04:22:48;;;;;;;13.67;4.83;;;10.90;95.60;;;;;;4860695;29;20079;-77
2020/12/23 04:25:14;;;;;;;15.13;5.13;;;10.90;95.60;;;;;;4822236;29;20045;-77
2020/12/23 04:27:41;;;;;;;11.10;5.37;;;10.90;95.60;;;;;;4844116;29;20189;-77
2020/12/23 04:30:08;;;;;;;12.37;4.67;;;10.90;95.60;;;;;;4828351;29;20804;-77
2020/12/23 04:32:36;;;;;;;17.60;5.33;;;11.00;95.60;;;;;;4826074;29;20121;-77
2020/12/23 04:35:05;;;;;;;15.97;5.70;;;11.00;95.60;;;;;;4842346;29;20046;-77
2020/12/23 04:37:33;;;;;;;17.50;5.80;;;11.00;95.60;;;;;;4835593;29;20041;-77
2020/12/23 04:40:02;;;;;;;16.27;5.60;;;11.00;95.60;;;;;;4820003;29;20522;-77
2020/12/23 04:42:29;;;;;;;14.90;5.67;;;11.00;95.60;;;;;;4812588;29;20042;-77
2020/12/23 04:44:56;;;;;;;16.87;5.73;;;11.00;95.60;;;;;;4826198;29;20098;-77
2020/12/23 04:47:25;;;;;;;13.33;5.47;;;11.00;95.60;;;;;;4826670;29;20559;-77
2020/12/23 04:49:54;;;;;;;16.60;5.20;;;11.00;95.60;;;;;;4844424;29;20495;-77
2020/12/23 04:52:35;;;;;;;12.17;5.17;;;11.00;95.60;;;;;;4829378;29;20042;-77
2020/12/23 04:55:06;;;;;;;13.93;5.63;;;11.00;95.60;;;;;;4845564;29;20052;-77
2020/12/23 04:57:35;;;;;;;11.20;4.90;;;11.00;95.60;;;;;;4813746;29;20050;-77
2020/12/23 05:00:08;;;;;;;14.03;5.67;;;11.00;95.60;;;;;;4845644;29;20046;-78
2020/12/23 05:02:35;;;;;;;;;;;11.00;95.60;;;;;;4829548;29;20053;-78
2020/12/23 05:05:17;;;;;;;11.60;4.67;;;11.00;95.60;;;;;;4841219;29;19924;-78
2020/12/23 05:07:46;;;;;;;12.00;5.03;;;11.00;95.70;;;;;;4839829;29;20403;-78
2020/12/23 05:10:14;;;;;;;11.93;4.57;;;11.00;95.60;;;;;;4817140;29;20448;-78
2020/12/23 05:12:41;;;;;;;11.93;5.27;;;11.00;95.60;;;;;;4829153;29;20464;-78
2020/12/23 05:15:09;;;;;;;12.90;4.80;;;11.00;95.60;;;;;;4843389;29;20395;-78
2020/12/23 05:17:36;;;;;;;12.23;5.20;;;11.00;95.60;;;;;;4845174;29;20102;-78
2020/12/23 05:20:07;;;;;;;12.93;5.10;;;11.00;95.60;;;;;;4828211;29;20473;-78
2020/12/23 05:22:34;;;;;;;10.63;5.40;;;11.00;95.60;;;;;;4813221;29;20555;-78
2020/12/23 05:25:01;;;;;;;10.43;4.27;;;11.10;95.60;;;;;;4844415;29;20081;-78
2020/12/23 05:27:31;;;;;;;8.07;3.03;;;11.10;95.60;;;;;;4842829;29;20042;-78
2020/12/23 05:30:01;;;;;;;11.30;4.00;;;11.10;95.90;;;;;;4843526;29;20062;-78
2020/12/23 05:32:27;;;;;;;11.50;4.30;;;11.10;95.70;;;;;;4843728;29;20077;-78
2020/12/23 05:34:59;;;;;;;9.30;3.47;;;11.10;95.70;;;;;;4842572;29;20069;-78
2020/12/23 05:37:27;;;;;;;8.52;3.38;;;11.10;95.70;;;;;;4832203;29;20491;-79
2020/12/23 05:39:53;;;;;;;8.67;3.13;;;11.10;95.70;;;;;;4844765;29;20049;-78
2020/12/23 05:42:20;;;;;;;8.23;3.37;;;11.10;95.70;;;;;;4827931;29;20053;-78
2020/12/23 05:44:51;;;;;;;8.10;3.27;;;11.10;95.70;;;;;;4844897;29;20113;-79
2020/12/23 05:47:26;;;;;;;7.87;3.60;;;11.10;95.70;;;;;;4844106;29;20046;-79
2020/12/23 05:49:54;;;;;;;8.43;3.53;;;11.10;95.70;;;;;;4813492;29;20526;-79
2020/12/23 05:52:23;;;;;;;7.93;3.20;;;11.10;95.70;;;;;;4828186;29;20065;-79
2020/12/23 05:54:53;;;;;;;7.63;3.07;;;11.10;95.70;;;;;;4834067;29;20065;-79
2020/12/23 05:57:20;;;;;;;7.07;3.17;;;11.20;95.70;;;;;;4843331;29;20057;-79
2020/12/23 05:59:47;;;;;;;9.57;3.60;;;11.10;95.70;;;;;;4828177;29;20563;-77
2020/12/23 06:02:14;;;;;;;6.73;3.27;;;11.10;95.70;;;;;;4827078;29;20099;-79
2020/12/23 06:04:44;;;;;;;8.80;3.40;;;11.20;95.70;;;;;;4828220;29;20095;-79
2020/12/23 06:07:11;;;;;;;6.67;3.57;;;11.20;95.70;;;;;;4843358;29;20045;-79
2020/12/23 06:09:48;;;;;;;6.40;3.40;;;11.20;95.70;;;;;;4844327;29;20042;-79
2020/12/23 06:12:22;;;;;;;6.37;3.27;;;11.20;95.70;;;;;;4827888;29;20046;-80
2020/12/23 06:14:54;;;;;;;7.20;2.90;;;11.20;95.80;;;;;;4835642;29;20046;-81
2020/12/23 06:17:25;;;;;;;5.75;2.67;;;11.20;95.80;;;;;;4834738;29;20487;-81
2020/12/23 06:19:57;;;;;;;5.10;2.43;;;11.20;95.80;;;;;;4839252;29;20072;-81
2020/12/23 06:22:27;;;;;;;6.07;2.87;;;11.20;95.80;;;;;;4844288;29;20042;-82
2020/12/23 06:24:53;;;;;;;6.67;2.97;;;11.30;95.80;;;;;;4827494;29;20048;-82
2020/12/23 06:27:20;;;;;;;7.40;2.77;;;11.30;96.00;;;;;;4842995;29;20095;-79
2020/12/23 06:29:48;;;;;;;5.87;2.83;;;11.30;95.80;;;;;;4844839;29;20046;-79
2020/12/23 06:32:21;;;;;;;6.07;2.87;;;11.30;95.80;;;;;;4842867;29;20041;-79
2020/12/23 06:35:02;;;;;;;6.00;2.27;;;11.30;95.80;;;;;;4818001;29;20050;-79
2020/12/23 06:37:29;;;;;;;5.33;1.97;;;11.30;95.80;;;;;;4831074;29;20042;-79
2020/12/23 06:39:56;;;;;;;4.00;1.97;;;11.30;95.80;;;;;;4843923;29;20073;-78
2020/12/23 06:42:30;;;;;;;3.83;1.97;;;11.30;95.80;;;;;;4839360;29;20492;-78
2020/12/23 06:45:08;;;;;;;5.90;2.50;;;11.30;95.80;;;;;;4825486;29;20479;-79
2020/12/23 06:47:37;;;;;;;4.07;1.93;;;11.30;95.80;;;;;;4828765;29;20041;-79
2020/12/23 06:50:12;;;;;;;4.13;2.13;;;11.30;96.10;;;;;;4834603;29;20046;-82
2020/12/23 06:52:43;;;;;;;4.90;1.80;;;11.40;95.90;;;;;;4827648;29;20053;-81
2020/12/23 06:55:19;;;;;;;4.57;2.03;;;11.40;95.90;;;;;;4822741;29;20046;-81
2020/12/23 06:57:48;;;;;;;4.50;1.70;;;11.40;95.90;;;;;;4830965;29;20058;-80
2020/12/23 07:00:33;;;;;;;4.50;1.80;;;11.40;95.90;;;;;;4843443;29;20403;-80
2020/12/23 07:03:07;;;;;;;5.17;2.60;;;11.40;95.90;;;;;;4843387;29;20045;-80
2020/12/23 07:05:42;;;;;;;4.47;2.40;;;11.40;95.90;;;;;;4812111;29;20475;-78
2020/12/23 07:08:13;;;;;;;4.30;2.17;;;11.40;95.90;;;;;;4826965;29;20045;-78
2020/12/23 07:10:49;;;;;;;6.07;2.80;;;11.40;95.90;;;;;;4811837;29;20050;-78
2020/12/23 07:13:18;;;;;;;4.50;2.10;;;11.50;95.90;;;;;;4842211;29;20042;-79
2020/12/23 07:15:56;;;;;;;4.53;2.37;;;11.50;95.90;;;;;;4817943;29;20552;-78
2020/12/23 07:18:30;;;;;;;6.60;3.80;;;11.50;95.90;;;;;;4840011;29;20559;-77
2020/12/23 07:21:26;;;;;;;6.13;3.00;;;11.50;95.90;;;;;;4843254;29;20042;-78
2020/12/23 07:23:56;;;;;;;5.07;2.70;;;11.60;95.90;;;;;;4841656;29;20058;-77
2020/12/23 07:26:25;;;;;;;4.77;2.53;;;11.60;96.00;;;;;;4826885;29;20044;-79
2020/12/23 07:28:52;;;;;;;7.70;3.83;;;11.60;96.00;;;;;;4820754;29;20053;-78
2020/12/23 07:31:19;;;;;;;6.93;3.90;;;11.60;96.00;;;;;;4826475;29;20050;-78
2020/12/23 07:33:45;;;;;;;5.30;3.17;;;11.60;95.90;;;;;;4826482;29;20050;-78
2020/12/23 07:36:14;;;;;;;5.93;2.80;;;11.60;95.90;;;;;;4842578;29;20045;-81
2020/12/23 07:38:41;;;;;;;5.53;2.93;;;11.70;96.20;;;;;;4826639;29;20057;-79
2020/12/23 07:41:12;;;;;;;8.53;3.87;;;11.70;95.90;;;;;;4811044;29;20045;-78
2020/12/23 07:43:39;;;;;;;7.20;3.80;;;11.70;95.90;;;;;;4826092;29;20560;-78
2020/12/23 07:46:06;;;;;;;7.30;4.53;;;11.70;95.90;;;;;;4826467;29;20053;-77
2020/12/23 07:48:33;;;;;;;7.73;4.03;;;11.80;96.20;;;;;;4796470;29;20142;-78
2020/12/23 07:51:00;;;;;;;8.00;4.67;;;11.80;95.90;;;;;;4818119;29;20514;-79
2020/12/23 07:53:29;;;;;;;8.77;5.50;;;11.80;95.90;;;;;;4819380;29;20119;-78
2020/12/23 07:55:58;;;;;;;10.87;6.13;;;11.90;96.00;;;;;;4841573;29;20053;-86
2020/12/23 07:58:25;;;;;;;9.57;5.97;;;11.90;96.00;;;;;;4826546;29;20095;-78
2020/12/23 08:00:52;;;;;;;10.53;5.80;;;11.90;96.00;;;;;;4828980;29;20046;-78
2020/12/23 08:03:26;;;;;;;8.33;4.63;;;11.90;95.90;;;;;;4825717;29;20426;-78
2020/12/23 08:06:06;;;;;;;7.83;4.17;;;11.90;95.90;;;;;;4842489;29;20053;-78
2020/12/23 08:08:34;;;;;;;8.93;5.47;;;12.00;96.00;;;;;;4811631;29;20388;-81
2020/12/23 08:11:12;;;;;;;7.40;4.67;;;11.90;96.00;;;;;;4820757;29;20471;-78
2020/12/23 08:13:39;;;;;;;8.97;5.40;;;12.00;96.00;;;;;;4830458;29;20486;-78
2020/12/23 08:16:08;;;;;;;8.33;5.47;;;12.00;96.00;;;;;;4826394;29;20102;-78
2020/12/23 08:18:36;;;;;;;9.63;6.10;;;12.00;96.00;;;;;;4838583;29;20094;-78
2020/12/23 08:21:07;;;;;;;9.03;5.60;;;12.00;96.00;;;;;;4842255;29;20076;-78
2020/12/23 08:23:37;;;;;;;10.20;5.50;;;12.00;96.00;;;;;;4810931;29;20046;-77
2020/12/23 08:26:04;;;;;;;9.97;6.30;;;12.00;96.00;;;;;;4841008;29;20038;-78
2020/12/23 08:28:42;;;;;;;9.60;6.20;;;12.00;96.10;;;;;;4841955;29;20046;-80
2020/12/23 08:31:19;;;;;;;13.23;7.70;;;12.00;96.10;;;;;;4810759;29;20057;-78
2020/12/23 08:33:49;;;;;;;10.53;6.23;;;12.00;96.10;;;;;;4842069;29;20451;-79
2020/12/23 08:36:16;;;;;;;10.53;5.70;;;12.00;96.10;;;;;;4832698;29;20050;-78
2020/12/23 08:38:43;;;;;;;10.43;6.20;;;12.00;96.10;;;;;;4840643;29;20072;-78
2020/12/23 08:41:17;;;;;;;11.17;6.03;;;12.00;96.10;;;;;;4810664;29;20049;-78
2020/12/23 08:43:49;;;;;;;10.00;6.57;;;12.00;96.40;;;;;;4841622;29;20093;-79
2020/12/23 08:46:24;;;;;;;7.25;4.43;;;12.00;96.20;;;;;;4825673;29;20042;-79
2020/12/23 08:48:55;;;;;;;10.53;5.87;;;12.00;96.20;;;;;;4837552;29;20042;-78
2020/12/23 08:51:25;;;;;;;10.33;5.73;;;12.00;96.20;;;;;;4825199;29;20054;-77
2020/12/23 08:53:54;;;;;;;8.03;5.03;;;12.00;96.20;;;;;;4838424;29;20126;-77
2020/12/23 08:56:27;;;;;;;8.85;4.97;;;12.10;96.20;;;;;;4826593;29;20118;-77
2020/12/23 08:59:00;;;;;;;8.73;4.43;;;12.10;96.20;;;;;;4841563;29;20134;-78
2020/12/23 09:01:29;;;;;;;7.20;4.47;;;12.10;96.20;;;;;;4810255;29;20041;-78
2020/12/23 09:04:05;;;;;;;7.67;4.30;;;12.10;96.20;;;;;;4840696;29;20488;-77
2020/12/23 09:06:37;;;;;;;7.07;4.00;;;12.10;96.30;;;;;;4841543;29;20484;-77
2020/12/23 09:09:09;;;;;;;7.83;4.77;;;12.10;96.30;;;;;;4810969;29;20050;-77
2020/12/23 09:11:43;;;;;;;7.20;4.13;;;12.10;96.30;;;;;;4825181;29;20046;-77
2020/12/23 09:14:29;;;;;;;8.10;4.80;;;12.10;96.30;;;;;;4825379;29;20058;-77
2020/12/23 09:16:57;;;;;;;5.33;3.27;;;12.10;96.30;;;;;;4841635;29;20042;-77
2020/12/23 09:19:42;;;;;;;6.47;3.63;;;12.10;96.30;;;;;;4841015;29;20491;-74
2020/12/23 09:22:10;;;;;;;4.77;2.60;;;12.10;96.30;;;;;;4811964;29;20050;-73
2020/12/23 09:24:36;;;;;;;6.00;3.30;;;12.20;96.30;;;;;;4840086;29;20042;-74
2020/12/23 09:27:20;;;;;;;5.27;2.60;;;12.20;96.30;;;;;;4838697;29;20049;-73
2020/12/23 09:29:47;;;;;;;5.07;2.60;;;12.20;96.30;;;;;;4801684;29;20087;-74
2020/12/23 09:32:13;;;;;;;4.67;2.53;;;12.20;96.30;;;;;;4823147;29;20590;-74
2020/12/23 09:35:10;;;;;;;4.17;2.27;;;12.20;96.30;;;;;;4820926;29;20050;-74
2020/12/23 09:37:36;;;;;;;4.27;2.50;;;12.20;96.30;;;;;;4841333;29;20456;-74
2020/12/23 09:40:06;;;;;;;4.17;2.30;;;12.20;96.30;;;;;;4843268;29;20128;-74
2020/12/23 09:42:37;;;;;;;2.67;1.70;;;12.20;96.30;;;;;;4825718;29;20114;-75
2020/12/23 09:45:05;;;;;;;3.30;1.80;;;12.20;96.30;;;;;;4817190;29;20118;-75
2020/12/23 09:47:32;;;;;;;3.87;2.03;;;12.20;96.30;;;;;;4841834;29;20133;-75
2020/12/23 09:50:02;;;;;;;5.60;2.47;;;12.20;96.30;;;;;;4827152;29;20053;-75
2020/12/23 09:52:29;;;;;;;4.00;2.17;;;12.20;96.30;;;;;;4842506;29;20439;-74
2020/12/23 09:54:56;;;;;;;3.30;2.00;;;12.20;96.30;;;;;;4841835;29;20387;-74
2020/12/23 09:57:22;;;;;;;3.50;1.60;;;12.20;96.30;;;;;;4811780;29;20069;-74
2020/12/23 09:59:48;;;;;;;3.67;1.90;;;12.20;96.30;;;;;;4835734;29;20056;-75
2020/12/23 10:02:15;;;;;;;3.47;1.77;;;12.20;96.30;;;;;;4812261;29;20050;-75
2020/12/23 10:04:41;;;;;;;5.53;1.67;;;12.20;96.30;;;;;;4811704;29;20094;-74
2020/12/23 10:07:09;;;;;;;3.13;1.50;;;12.20;96.30;;;;;;4811214;29;20049;-74
2020/12/23 10:09:44;;;;;;;2.90;1.37;;;12.20;96.30;;;;;;4812460;29;20410;-75
2020/12/23 10:12:10;;;;;;;2.87;1.17;;;12.30;96.40;;;;;;4842776;29;20133;-75
2020/12/23 10:14:37;;;;;;;2.90;1.40;;;12.30;96.40;;;;;;4796617;29;20847;-75
2020/12/23 10:17:03;;;;;;;2.73;1.30;;;12.30;96.30;;;;;;4826532;29;20117;-74
2020/12/23 10:19:30;;;;;;;4.10;1.20;;;12.30;96.30;;;;;;4841642;29;20046;-75
2020/12/23 10:21:56;;;;;;;3.33;1.70;;;12.30;96.30;;;;;;4807734;29;20054;-74
2020/12/23 10:24:23;;;;;;;4.80;1.70;;;12.30;96.30;;;;;;4823369;29;20077;-74
2020/12/23 10:26:53;;;;;;;3.50;1.67;;;12.30;96.60;;;;;;4840218;29;20045;-74
2020/12/23 10:29:20;;;;;;;3.07;1.13;;;12.30;96.30;;;;;;4843290;29;20060;-74
2020/12/23 10:31:47;;;;;;;3.23;1.30;;;12.30;96.30;;;;;;4841290;29;20053;-74
2020/12/23 10:34:14;;;;;;;2.63;1.17;;;12.30;96.30;;;;;;4826443;29;20042;-74
2020/12/23 10:36:41;;;;;;;3.67;1.43;;;12.30;96.30;;;;;;4837775;29;20042;-74
2020/12/23 10:39:07;;;;;;;2.73;1.17;;;12.40;96.40;;;;;;4804406;29;20056;-74
2020/12/23 10:41:34;;;;;;;2.30;1.23;;;12.40;96.40;;;;;;4805156;29;20050;-74
2020/12/23 10:44:00;;;;;;;2.00;0.77;;;12.40;96.40;;;;;;4825153;29;20049;-74
2020/12/23 10:46:26;;;;;;;2.23;0.90;;;12.40;96.40;;;;;;4827239;29;20051;-74
2020/12/23 10:48:53;;;;;;;2.70;1.00;;;12.40;96.40;;;;;;4823402;29;20081;-75
2020/12/23 10:51:19;;;;;;;1.93;0.80;;;12.40;96.30;;;;;;4801943;29;20095;-75
2020/12/23 10:53:46;;;;;;;2.70;1.00;;;12.40;96.60;;;;;;4832124;29;20042;-74
2020/12/23 10:56:12;;;;;;;1.83;0.80;;;12.40;96.30;;;;;;4810584;29;20133;-74
2020/12/23 10:58:40;;;;;;;2.20;0.90;;;12.40;96.30;;;;;;4818515;29;20453;-78
2020/12/23 11:01:07;;;;;;;2.33;0.90;;;12.40;96.30;;;;;;4822491;29;20081;-74
2020/12/23 11:03:34;;;;;;;2.23;1.30;;;12.40;96.30;;;;;;4796108;29;20091;-75
2020/12/23 11:06:01;;;;;;;3.30;1.70;;;12.40;96.30;;;;;;4809129;29;20571;-74
2020/12/23 11:08:28;;;;;;;3.37;1.80;;;12.40;96.30;;;;;;4823342;29;20041;-75
2020/12/23 11:10:55;;;;;;;3.00;1.20;;;12.40;96.30;;;;;;4795570;29;20465;-74
2020/12/23 11:13:21;;;;;;;2.90;1.30;;;12.40;96.30;;;;;;4840818;29;20110;-74
2020/12/23 11:15:48;;;;;;;2.63;1.20;;;12.30;96.50;;;;;;4801050;29;20118;-75
2020/12/23 11:18:14;;;;;;;2.40;1.20;;;12.30;96.30;;;;;;4839757;29;20045;-84
2020/12/23 11:20:41;;;;;;;2.10;0.90;;;12.30;96.30;;;;;;4826450;29;20058;-81
2020/12/23 11:23:10;;;;;;;1.73;0.70;;;12.30;96.30;;;;;;4783183;29;20054;-79
2020/12/23 11:25:39;;;;;;;2.17;1.23;;;12.30;96.30;;;;;;4828812;29;20054;-81
2020/12/23 11:28:06;;;;;;;2.17;0.90;;;12.30;96.30;;;;;;4831985;29;20043;-79
2020/12/23 11:30:33;;;;;;;1.00;0.50;;;12.30;96.30;;;;;;4826061;29;20087;-81
2020/12/23 11:32:59;;;;;;;1.33;0.77;;;12.30;96.30;;;;;;4815588;29;20511;-82
2020/12/23 11:35:26;;;;;;;1.70;1.00;;;12.30;96.40;;;;;;4806424;29;20073;-82
2020/12/23 11:37:52;;;;;;;2.23;0.80;;;12.30;96.40;;;;;;4832426;29;20054;-80
2020/12/23 11:40:32;;;;;;;2.47;1.07;;;12.30;96.40;;;;;;4811528;29;20495;-84
2020/12/23 11:42:59;;;;;;;1.77;0.70;;;12.30;96.40;;;;;;4817180;29;20065;-80
2020/12/23 11:45:25;;;;;;;1.67;0.90;;;12.30;96.40;;;;;;4814237;29;20499;-79
2020/12/23 11:47:52;;;;;;;1.73;0.70;;;12.30;96.40;;;;;;4830838;29;20089;-82
2020/12/23 11:50:18;;;;;;;2.30;0.87;;;12.30;96.40;;;;;;4796340;29;20399;-82
2020/12/23 11:52:45;;;;;;;1.97;0.70;;;12.30;96.40;;;;;;4822534;29;20050;-78
2020/12/23 11:55:11;;;;;;;2.17;0.80;;;12.30;96.40;;;;;;4836406;29;20089;-78
2020/12/23 11:57:39;;;;;;;1.93;0.90;;;12.30;96.40;;;;;;4825811;29;20098;-80
2020/12/23 12:00:07;;;;;;;2.00;0.90;;;12.30;96.30;;;;;;4825732;29;20049;-77
2020/12/23 12:02:38;;;;;;;2.70;1.10;;;12.30;96.30;;;;;;4841834;29;20050;-77
2020/12/23 12:05:09;;;;;;;1.53;0.77;;;12.30;96.40;;;;;;4829632;29;20081;-78
2020/12/23 12:07:36;;;;;;;2.50;1.10;;;12.30;96.40;;;;;;4825872;29;20052;-78
2020/12/23 12:10:12;;;;;;;2.30;1.03;;;12.30;96.40;;;;;;4810667;29;20072;-77
2020/12/23 12:12:39;;;;;;;2.17;0.80;;;12.30;96.40;;;;;;4829277;29;20046;-77
2020/12/23 12:15:05;;;;;;;4.23;2.27;;;12.30;96.40;;;;;;4824128;29;20054;-76
2020/12/23 12:17:33;;;;;;;3.33;1.77;;;12.30;96.60;;;;;;4810342;29;20110;-77
2020/12/23 12:19:59;;;;;;;4.00;2.10;;;12.20;96.30;;;;;;4795414;29;20495;-76
2020/12/23 12:22:27;;;;;;;3.77;1.80;;;12.20;96.40;;;;;;4825815;29;20125;-77
2020/12/23 12:24:56;;;;;;;4.60;2.47;;;12.30;96.40;;;;;;4841582;29;20042;-78
2020/12/23 12:27:23;;;;;;;3.83;2.37;;;12.30;96.40;;;;;;4826378;29;20046;-78
2020/12/23 12:29:49;;;;;;;3.50;2.17;;;12.30;96.40;;;;;;4825600;29;20110;-77
2020/12/23 12:32:16;;;;;;;2.67;1.83;;;12.30;96.40;;;;;;4807646;29;20329;-80
2020/12/23 12:34:42;;;;;;;3.33;2.00;;;12.30;96.40;;;;;;4807273;29;20147;-79
2020/12/23 12:37:09;;;;;;;3.33;2.10;;;12.30;96.40;;;;;;4797737;29;20058;-77
2020/12/23 12:39:35;;;;;;;3.40;1.77;;;12.30;96.40;;;;;;4825663;29;20732;-78
2020/12/23 12:42:02;;;;;;;2.93;1.90;;;12.30;96.40;;;;;;4825133;29;20054;-75
2020/12/23 12:44:29;;;;;;;3.30;1.30;;;12.30;96.40;;;;;;4841562;29;20243;-78
2020/12/23 12:46:55;;;;;;;2.63;1.30;;;12.30;96.40;;;;;;4809938;29;20095;-77
2020/12/23 12:49:22;;;;;;;3.37;1.73;;;12.30;96.40;;;;;;4813158;29;20061;-77
2020/12/23 12:51:49;;;;;;;2.63;1.40;;;12.30;96.40;;;;;;4836918;29;20074;-78